Time;durP1;ratioP1;P1;durP2;ratioP2;P2;SDS_P1;SDS_P2;PMS_P1;PMS_P2;Temp;Humidity;BMP_temperature;BMP_pressure;BME280_temperature;BME280_humidity;BME280_pressure;Samples;Min_cycle;Max_cycle;Signal;HPM_P1;HPM_P2
2022/10/16 00:01:30;;;;;;;7.10;1.30;;;;;;;14.30;100.00;100822.34;5087470;28;20067;-66
2022/10/16 00:03:57;;;;;;;3.30;1.17;;;;;;;14.25;100.00;100817.03;5075178;28;20067;-68
2022/10/16 00:06:24;;;;;;;1.38;1.08;;;;;;;14.25;100.00;100819.69;5083279;28;20024;-66
2022/10/16 00:08:51;;;;;;;2.33;1.02;;;;;;;14.26;100.00;100826.75;5088241;28;20039;-67
2022/10/16 00:11:17;;;;;;;1.45;0.70;;;;;;;14.26;100.00;100817.94;5090800;28;20085;-67
2022/10/16 00:13:44;;;;;;;4.38;1.42;;;;;;;14.30;100.00;100822.34;5086805;28;20471;-66
2022/10/16 00:16:11;;;;;;;4.88;1.08;;;;;;;14.26;100.00;100823.22;5085356;28;20105;-68
2022/10/16 00:18:37;;;;;;;2.13;1.10;;;;;;;14.24;100.00;100823.19;5085006;28;20024;-66
2022/10/16 00:21:04;;;;;;;1.50;0.95;;;;;;;14.25;100.00;100821.44;5084057;28;20377;-67
2022/10/16 00:23:31;;;;;;;2.63;1.10;;;;;;;14.22;100.00;100819.69;5081616;28;20043;-66
2022/10/16 00:25:58;;;;;;;5.25;1.30;;;;;;;14.21;100.00;100817.03;5084780;28;21447;-69
2022/10/16 00:28:24;;;;;;;2.58;1.05;;;;;;;14.23;100.00;100817.91;5092801;28;20523;-66
2022/10/16 00:30:49;;;;;;;1.52;0.77;;;;;;;14.25;100.00;100808.22;5086081;28;20143;-67
2022/10/16 00:33:15;;;;;;;3.83;0.95;;;;;;;14.24;100.00;100811.75;5085528;28;20056;-66
2022/10/16 00:35:40;;;;;;;4.03;0.90;;;;;;;14.27;100.00;100810.00;5091586;28;20353;-66
2022/10/16 00:38:05;;;;;;;1.67;0.88;;;;;;;14.32;100.00;100802.03;5082272;28;20034;-66
2022/10/16 00:40:31;;;;;;;2.65;0.82;;;;;;;14.42;100.00;100810.84;5093734;28;20028;-67
2022/10/16 00:42:57;;;;;;;2.47;0.80;;;;;;;14.42;100.00;100802.91;5092946;28;20133;-67
2022/10/16 00:45:22;;;;;;;2.75;0.93;;;;;;;14.44;100.00;100798.53;5087835;28;20078;-66
2022/10/16 00:47:51;;;;;;;1.52;0.85;;;;;;;14.38;100.00;100794.13;5091824;28;20099;-66
2022/10/16 00:50:37;;;;;;;2.10;0.50;;;;;;;14.35;100.00;100804.69;5093272;28;20042;-67
2022/10/16 00:53:03;;;;;;;4.65;0.88;;;;;;;14.37;100.00;100802.06;5084070;28;20043;-66
2022/10/16 00:55:30;;;;;;;2.58;0.60;;;;;;;14.39;100.00;100798.53;5083364;28;20074;-67
2022/10/16 00:57:57;;;;;;;0.65;0.50;;;;;;;14.38;100.00;100806.44;5083193;28;20503;-66
2022/10/16 01:00:26;;;;;;;5.82;0.95;;;;;;;14.36;100.00;100805.59;5092591;28;20034;-66
2022/10/16 01:03:00;;;;;;;3.90;0.80;;;;;;;14.31;100.00;100801.16;5081634;28;20036;-67
2022/10/16 01:05:33;;;;;;;2.35;0.68;;;;;;;14.34;100.00;100802.94;5081574;28;20035;-67
2022/10/16 01:08:06;;;;;;;3.47;0.93;;;;;;;14.35;100.00;100809.97;5087619;28;20050;-67
2022/10/16 01:10:37;;;;;;;2.15;0.90;;;;;;;14.29;100.00;100810.84;5079679;28;20028;-67
2022/10/16 01:13:18;;;;;;;2.28;0.80;;;;;;;14.24;100.00;100817.03;5082362;28;20023;-66
2022/10/16 01:16:06;;;;;;;3.70;0.90;;;;;;;14.22;100.00;100819.69;5088560;28;20035;-67
2022/10/16 01:18:49;;;;;;;2.10;0.90;;;;;;;14.12;100.00;100813.50;5079745;28;20033;-67
2022/10/16 01:21:32;;;;;;;2.30;1.00;;;;;;;14.04;100.00;100812.63;5081921;28;20085;-67
2022/10/16 01:24:16;;;;;;;4.40;1.02;;;;;;;13.99;100.00;100809.06;5086735;28;20286;-67
2022/10/16 01:26:59;;;;;;;2.65;0.82;;;;;;;14.01;100.00;100815.22;5080236;28;20460;-67
2022/10/16 01:29:56;;;;;;;2.08;1.10;;;;;;;13.88;100.00;100808.19;5088591;28;20034;-67
2022/10/16 01:32:36;;;;;;;6.80;1.10;;;;;;;13.76;100.00;100817.81;5074496;28;20402;-67
2022/10/16 01:35:07;;;;;;;2.25;1.17;;;;;;;13.74;100.00;100822.25;5090170;28;20115;-66
2022/10/16 01:37:39;;;;;;;4.28;1.58;;;;;;;13.63;100.00;100821.31;5080713;28;20024;-66
2022/10/16 01:40:10;;;;;;;2.20;1.30;;;;;;;13.59;100.00;100827.44;5091312;28;20027;-67
2022/10/16 01:42:41;;;;;;;3.20;1.33;;;;;;;13.55;100.00;100826.59;5081036;28;20027;-68
2022/10/16 01:45:11;;;;;;;2.60;1.08;;;;;;;13.51;100.00;100829.19;5091134;28;20357;-67
2022/10/16 01:47:37;;;;;;;2.50;0.90;;;;;;;13.46;100.00;100822.13;5081790;28;20024;-67
2022/10/16 01:50:05;;;;;;;4.55;1.27;;;;;;;13.52;100.00;100815.09;5093033;28;20547;-67
2022/10/16 01:52:34;;;;;;;3.58;1.20;;;;;;;13.46;100.00;100813.31;5090552;28;20103;-66
2022/10/16 01:55:02;;;;;;;5.25;1.13;;;;;;;13.44;100.00;100818.59;5078419;28;20020;-67
2022/10/16 01:57:29;;;;;;;2.10;0.88;;;;;;;13.40;100.00;100821.22;5080330;28;20049;-68
2022/10/16 02:00:01;;;;;;;2.15;0.80;;;;;;;13.37;100.00;100832.66;5083925;28;20036;-67
2022/10/16 02:02:30;;;;;;;6.63;1.10;;;;;;;13.34;100.00;100824.69;5089298;28;20028;-67
2022/10/16 02:05:01;;;;;;;4.70;1.10;;;;;;;13.35;100.00;100836.13;5086945;28;20392;-67
2022/10/16 02:07:27;;;;;;;1.05;0.73;;;;;;;13.37;100.00;100835.28;5083151;28;20027;-66
2022/10/16 02:09:52;;;;;;;3.63;1.13;;;;;;;13.37;100.00;100843.22;5073471;28;20107;-68
2022/10/16 02:12:25;;;;;;;2.10;1.02;;;;;;;13.35;100.00;100839.66;5079653;28;20025;-68
2022/10/16 02:14:50;;;;;;;4.93;1.00;;;;;;;13.33;100.00;100833.47;5075620;28;20039;-65
2022/10/16 02:17:17;;;;;;;4.88;1.05;;;;;;;13.37;100.00;100831.78;5081908;28;20028;-68
2022/10/16 02:19:46;;;;;;;1.98;1.20;;;;;;;13.38;100.00;100837.06;5077506;28;20032;-67
2022/10/16 02:22:22;;;;;;;7.65;1.40;;;;;;;13.35;100.00;100834.38;5085835;28;20024;-67
2022/10/16 02:24:56;;;;;;;3.08;1.23;;;;;;;13.37;100.00;100834.41;5088030;28;20036;-68
2022/10/16 02:27:52;;;;;;;2.65;1.80;;;;;;;13.37;100.00;100837.94;5078301;28;20066;-67
2022/10/16 02:30:24;;;;;;;4.55;1.30;;;;;;;13.34;100.00;100832.59;5082743;28;20086;-67
2022/10/16 02:32:52;;;;;;;4.47;1.40;;;;;;;13.31;100.00;100837.88;5084703;28;20024;-67
2022/10/16 02:35:20;;;;;;;3.53;1.67;;;;;;;13.30;100.00;100831.69;5089524;28;20027;-66
2022/10/16 02:37:47;;;;;;;2.03;1.25;;;;;;;13.31;100.00;100829.97;5089014;28;20518;-67
2022/10/16 02:40:13;;;;;;;2.83;1.40;;;;;;;13.30;100.00;100838.75;5083702;28;20104;-67
2022/10/16 02:42:40;;;;;;;4.78;1.55;;;;;;;13.33;100.00;100846.69;5088875;28;20439;-67
2022/10/16 02:45:08;;;;;;;6.68;2.33;;;;;;;13.37;100.00;100847.63;5091305;28;20046;-67
2022/10/16 02:47:33;;;;;;;2.33;1.30;;;;;;;13.37;100.00;100851.16;5081586;28;20063;-68
2022/10/16 02:49:59;;;;;;;4.60;1.63;;;;;;;13.32;100.00;100847.56;5087942;28;20055;-67
2022/10/16 02:52:24;;;;;;;4.05;1.40;;;;;;;13.28;100.00;100843.13;5092617;28;20027;-68
2022/10/16 02:54:50;;;;;;;5.43;1.30;;;;;;;13.26;100.00;100858.97;5096036;28;20028;-67
2022/10/16 02:57:15;;;;;;;9.73;2.65;;;;;;;13.31;100.00;100843.16;5092781;28;20048;-66
2022/10/16 02:59:41;;;;;;;2.13;1.20;;;;;;;13.27;100.00;100851.97;5094151;28;20498;-66
2022/10/16 03:02:06;;;;;;;2.17;1.10;;;;;;;13.21;100.00;100847.53;5089688;28;20035;-66
2022/10/16 03:04:32;;;;;;;6.18;1.80;;;;;;;13.28;100.00;100853.69;5089170;28;20039;-67
2022/10/16 03:06:57;;;;;;;3.22;1.38;;;;;;;13.21;100.00;100852.81;5085514;28;20384;-67
2022/10/16 03:09:22;;;;;;;3.45;1.23;;;;;;;13.20;100.00;100839.56;5085748;28;20067;-67
2022/10/16 03:11:48;;;;;;;4.97;1.23;;;;;;;13.19;100.00;100853.69;5091488;28;20102;-67
2022/10/16 03:14:13;;;;;;;5.70;1.50;;;;;;;13.24;100.00;100858.09;5078309;28;20095;-67
2022/10/16 03:16:39;;;;;;;6.38;1.20;;;;;;;13.24;100.00;100858.09;5089158;28;20028;-67
2022/10/16 03:19:04;;;;;;;4.13;1.30;;;;;;;13.21;100.00;100851.91;5092299;28;20036;-66
2022/10/16 03:21:29;;;;;;;1.83;1.10;;;;;;;13.25;100.00;100857.25;5095306;28;20031;-67
2022/10/16 03:23:55;;;;;;;2.70;1.30;;;;;;;13.26;100.00;100855.47;5087489;28;20043;-67
2022/10/16 03:26:20;;;;;;;4.07;1.27;;;;;;;13.27;100.00;100862.53;5084681;28;20055;-66
2022/10/16 03:28:45;;;;;;;6.78;1.52;;;;;;;13.26;100.00;100876.59;5082004;28;20042;-66
2022/10/16 03:31:11;;;;;;;4.68;1.30;;;;;;;13.29;100.00;100874.88;5080729;28;20375;-69
2022/10/16 03:33:36;;;;;;;3.45;1.23;;;;;;;13.30;100.00;100873.97;5082071;28;20031;-66
2022/10/16 03:36:01;;;;;;;7.32;1.33;;;;;;;13.37;100.00;100864.38;5090543;28;20028;-67
2022/10/16 03:38:27;;;;;;;3.90;1.10;;;;;;;13.39;100.00;100874.94;5094527;28;20039;-67
2022/10/16 03:40:52;;;;;;;5.05;1.08;;;;;;;13.47;100.00;100879.41;5089184;28;20028;-67
2022/10/16 03:43:17;;;;;;;6.18;1.40;;;;;;;13.43;100.00;100885.56;5086203;28;20028;-66
2022/10/16 03:45:43;;;;;;;4.18;1.20;;;;;;;13.40;100.00;100877.63;5094455;28;20032;-67
2022/10/16 03:48:08;;;;;;;3.08;1.27;;;;;;;13.44;100.00;100887.34;5088642;28;20470;-66
2022/10/16 03:50:33;;;;;;;1.67;1.00;;;;;;;13.47;100.00;100870.59;5090635;28;20547;-66
2022/10/16 03:52:59;;;;;;;7.18;1.33;;;;;;;13.48;100.00;100881.19;5091771;28;20020;-66
2022/10/16 03:55:24;;;;;;;4.63;1.27;;;;;;;13.49;100.00;100890.84;5078070;28;20028;-67
2022/10/16 03:57:49;;;;;;;3.45;1.13;;;;;;;13.53;100.00;100890.91;5078251;28;20124;-67
2022/10/16 04:00:15;;;;;;;1.48;0.93;;;;;;;13.52;100.00;100883.84;5080486;28;20107;-67
2022/10/16 04:02:40;;;;;;;2.92;0.88;;;;;;;13.47;100.00;100897.91;5093208;28;20032;-68
2022/10/16 04:05:07;;;;;;;4.32;1.10;;;;;;;13.42;100.00;100904.94;5084653;28;20038;-66
2022/10/16 04:07:33;;;;;;;1.02;0.80;;;;;;;13.41;100.00;100913.72;5088705;28;20024;-66
2022/10/16 04:09:58;;;;;;;4.38;1.00;;;;;;;13.43;100.00;100909.34;5085875;28;20537;-67
2022/10/16 04:12:24;;;;;;;7.53;1.23;;;;;;;13.44;100.00;100916.41;5086782;28;20549;-67
2022/10/16 04:14:50;;;;;;;1.80;1.20;;;;;;;13.42;100.00;100915.50;5095283;28;20145;-67
2022/10/16 04:17:15;;;;;;;1.45;0.95;;;;;;;13.36;100.00;100915.47;5094548;28;20106;-66
2022/10/16 04:19:40;;;;;;;2.53;1.08;;;;;;;13.34;100.00;100911.91;5091111;28;20031;-67
2022/10/16 04:22:06;;;;;;;5.25;1.10;;;;;;;13.38;100.00;100913.72;5082514;28;20024;-66
2022/10/16 04:24:31;;;;;;;4.10;1.15;;;;;;;13.38;100.00;100921.63;5090169;28;20024;-68
2022/10/16 04:26:56;;;;;;;2.45;1.20;;;;;;;13.37;100.00;100921.63;5088586;28;20097;-68
2022/10/16 04:29:22;;;;;;;5.70;1.30;;;;;;;13.33;100.00;100923.34;5094660;28;20154;-67
2022/10/16 04:31:47;;;;;;;4.57;1.40;;;;;;;13.29;100.00;100925.09;5092136;28;20058;-67
2022/10/16 04:34:12;;;;;;;4.13;1.15;;;;;;;13.35;100.00;100934.81;5088540;28;20122;-66
2022/10/16 04:36:38;;;;;;;3.75;1.63;;;;;;;13.36;100.00;100936.63;5087358;28;20025;-67
2022/10/16 04:39:03;;;;;;;3.00;1.30;;;;;;;13.31;100.00;100939.19;5075798;28;20111;-67
2022/10/16 04:41:28;;;;;;;4.32;1.23;;;;;;;13.29;100.00;100947.97;5074617;28;20475;-67
2022/10/16 04:43:54;;;;;;;5.88;1.30;;;;;;;13.26;100.00;100940.91;5084236;28;20081;-67
2022/10/16 04:46:19;;;;;;;2.70;1.30;;;;;;;13.25;100.00;100959.41;5092283;28;20024;-66
2022/10/16 04:48:46;;;;;;;3.67;1.20;;;;;;;13.26;100.00;100966.47;5089943;28;20051;-65
2022/10/16 04:51:11;;;;;;;1.65;1.20;;;;;;;13.26;100.00;100971.75;5088841;28;20031;-66
2022/10/16 04:53:37;;;;;;;3.50;1.50;;;;;;;13.27;100.00;100970.88;5083230;28;20391;-68
2022/10/16 04:56:02;;;;;;;2.53;1.27;;;;;;;13.29;100.00;100977.03;5087056;28;20117;-67
2022/10/16 04:58:28;;;;;;;2.85;1.50;;;;;;;13.29;100.00;100988.53;5087577;28;20076;-68
2022/10/16 05:00:53;;;;;;;1.98;1.25;;;;;;;13.32;100.00;100982.34;5086011;28;20035;-67
2022/10/16 05:03:18;;;;;;;4.25;1.67;;;;;;;13.29;100.00;100998.19;5082576;28;20056;-67
2022/10/16 05:05:45;;;;;;;3.08;1.35;;;;;;;13.24;100.00;100998.16;5082696;28;20020;-68
2022/10/16 05:08:14;;;;;;;2.00;1.23;;;;;;;13.17;100.00;100983.09;5086036;28;20046;-68
2022/10/16 05:10:44;;;;;;;6.55;1.83;;;;;;;13.08;100.00;100990.97;5085090;28;20028;-67
2022/10/16 05:13:10;;;;;;;5.90;1.63;;;;;;;13.03;100.00;100982.13;5082984;28;20050;-66
2022/10/16 05:15:35;;;;;;;3.10;1.60;;;;;;;12.93;100.00;101000.53;5090403;28;20114;-66
2022/10/16 05:18:01;;;;;;;2.65;1.67;;;;;;;12.83;100.00;101003.94;5073839;28;20044;-66
2022/10/16 05:20:26;;;;;;;4.97;1.85;;;;;;;12.77;100.00;101003.91;5091338;28;20028;-67
2022/10/16 05:22:51;;;;;;;7.05;1.98;;;;;;;12.71;100.00;101010.00;5090094;28;20043;-66
2022/10/16 05:25:17;;;;;;;8.48;1.67;;;;;;;12.64;100.00;101016.06;5088098;28;20020;-68
2022/10/16 05:27:42;;;;;;;5.05;2.03;;;;;;;12.61;100.00;101019.56;5079546;28;20036;-67
2022/10/16 05:30:08;;;;;;;6.50;1.90;;;;;;;12.55;100.00;101027.44;5092385;28;20394;-67
2022/10/16 05:32:34;;;;;;;8.90;2.33;;;;;;;12.53;100.00;101026.50;5087460;28;20035;-67
2022/10/16 05:34:59;;;;;;;5.03;2.40;;;;;;;12.51;100.00;101019.44;5080382;28;20021;-67
2022/10/16 05:37:25;;;;;;;4.03;2.70;;;;;;;12.49;100.00;101027.34;5089195;28;20030;-66
2022/10/16 05:39:51;;;;;;;6.10;2.90;;;;;;;12.43;100.00;101030.81;5083075;28;20111;-68
2022/10/16 05:42:16;;;;;;;9.60;3.25;;;;;;;12.39;100.00;101034.28;5080991;28;20035;-67
2022/10/16 05:44:42;;;;;;;4.68;2.55;;;;;;;12.39;100.00;101028.13;5091015;28;20668;-67
2022/10/16 05:47:07;;;;;;;7.03;2.97;;;;;;;12.37;100.00;101030.75;5089846;28;20028;-66
2022/10/16 05:49:32;;;;;;;5.43;2.63;;;;;;;12.35;100.00;101032.47;5092295;28;20028;-66
2022/10/16 05:51:58;;;;;;;9.40;3.00;;;;;;;12.34;100.00;101041.25;5091426;28;20379;-65
2022/10/16 05:54:23;;;;;;;11.35;3.10;;;;;;;12.32;100.00;101037.72;5092796;28;20038;-66
2022/10/16 05:56:48;;;;;;;6.93;3.42;;;;;;;12.31;100.00;101030.66;5081523;28;20060;-67
2022/10/16 05:59:14;;;;;;;8.45;2.90;;;;;;;12.33;100.00;101031.56;5087437;28;20379;-67
2022/10/16 06:01:39;;;;;;;9.15;2.97;;;;;;;12.32;100.00;101043.88;5087833;28;20547;-66
2022/10/16 06:04:04;;;;;;;6.57;3.05;;;;;;;12.35;100.00;101044.78;5080818;28;20063;-66
2022/10/16 06:06:30;;;;;;;4.03;2.50;;;;;;;12.28;100.00;101042.06;5091260;28;20399;-67
2022/10/16 06:08:57;;;;;;;11.25;3.53;;;;;;;12.31;100.00;101046.50;5088763;28;20034;-67
2022/10/16 06:11:25;;;;;;;7.90;2.63;;;;;;;12.31;100.00;101046.50;5082948;28;20024;-66
2022/10/16 06:13:52;;;;;;;11.60;3.17;;;;;;;12.29;100.00;101053.50;5077325;28;20032;-67
2022/10/16 06:16:17;;;;;;;13.40;2.60;;;;;;;12.33;100.00;101052.69;5080730;28;21670;-65
2022/10/16 06:18:43;;;;;;;5.72;2.45;;;;;;;12.28;100.00;101046.47;5085220;28;20032;-66
2022/10/16 06:21:19;;;;;;;7.38;2.10;;;;;;;12.30;100.00;101053.53;5090829;28;20093;-67
2022/10/16 06:23:46;;;;;;;4.00;2.25;;;;;;;12.27;100.00;101055.22;5082864;28;20032;-68
2022/10/16 06:26:17;;;;;;;9.40;3.40;;;;;;;12.27;100.00;101061.38;5087509;28;20065;-67
2022/10/16 06:28:43;;;;;;;6.30;2.25;;;;;;;12.33;100.00;101057.97;5057583;28;20476;-67
2022/10/16 06:31:10;;;;;;;8.43;1.90;;;;;;;12.34;100.00;101062.34;5088546;28;20082;-66
2022/10/16 06:33:36;;;;;;;8.35;2.40;;;;;;;12.35;100.00;101064.13;5086037;28;20085;-66
2022/10/16 06:36:14;;;;;;;10.60;2.00;;;;;;;12.33;100.00;101071.16;5063813;28;20032;-67
2022/10/16 06:38:39;;;;;;;6.07;1.80;;;;;;;12.36;100.00;101076.47;5080822;28;20032;-66
2022/10/16 06:41:06;;;;;;;9.27;2.00;;;;;;;12.36;100.00;101076.47;5088775;28;20033;-67
2022/10/16 06:43:32;;;;;;;6.25;1.90;;;;;;;12.39;100.00;101087.06;5083588;28;20082;-67
2022/10/16 06:45:59;;;;;;;4.65;1.70;;;;;;;12.42;100.00;101087.09;5084911;28;20031;-68
2022/10/16 06:48:25;;;;;;;6.07;1.30;;;;;;;12.44;100.00;101085.38;5086106;28;20480;-67
2022/10/16 06:51:09;;;;;;;10.43;2.28;;;;;;;12.42;100.00;101092.34;5087953;28;20020;-66
2022/10/16 06:53:37;;;;;;;9.18;1.77;;;;;;;12.45;100.00;101094.16;5090946;28;20032;-67
2022/10/16 06:56:20;;;;;;;6.45;1.80;;;;;;;12.45;100.00;101102.97;5098190;28;20048;-66
2022/10/16 06:58:46;;;;;;;7.77;1.70;;;;;;;12.46;100.00;101109.13;5079151;28;20040;-67
2022/10/16 07:01:13;;;;;;;8.05;1.70;;;;;;;12.44;100.00;101117.03;5079533;28;21240;-68
2022/10/16 07:03:40;;;;;;;5.75;1.70;;;;;;;12.45;100.00;101120.56;5072326;28;20031;-66
2022/10/16 07:06:08;;;;;;;7.95;1.88;;;;;;;12.44;100.00;101116.16;5079768;28;20396;-65
2022/10/16 07:08:38;;;;;;;4.35;1.50;;;;;;;12.44;100.00;101132.88;5082011;28;20017;-66
2022/10/16 07:11:09;;;;;;;6.30;2.10;;;;;;;12.44;100.00;101126.72;5083684;28;20042;-67
2022/10/16 07:13:36;;;;;;;5.82;1.98;;;;;;;12.45;100.00;101134.66;5083844;28;20447;-66
2022/10/16 07:16:16;;;;;;;7.22;1.88;;;;;;;12.45;100.00;101144.31;5087327;28;20406;-67
2022/10/16 07:18:44;;;;;;;4.60;1.42;;;;;;;12.50;100.00;101147.03;5082897;28;20024;-67
2022/10/16 07:21:11;;;;;;;9.52;1.92;;;;;;;12.50;100.00;101149.66;5084806;28;20476;-65
2022/10/16 07:23:37;;;;;;;5.57;2.20;;;;;;;12.53;100.00;101162.91;5081609;28;20024;-65
2022/10/16 07:26:04;;;;;;;3.72;1.80;;;;;;;12.54;100.00;101172.59;5089898;28;20521;-66
2022/10/16 07:28:29;;;;;;;6.50;2.20;;;;;;;12.62;100.00;101168.31;5087391;28;20107;-66
2022/10/16 07:30:55;;;;;;;8.30;2.05;;;;;;;12.65;100.00;101184.19;5091403;28;20503;-67
2022/10/16 07:33:21;;;;;;;3.55;1.70;;;;;;;12.68;100.00;101191.25;5089845;28;20024;-68
2022/10/16 07:35:54;;;;;;;5.85;2.78;;;;;;;12.73;100.00;101186.94;5078515;28;20024;-67
2022/10/16 07:38:21;;;;;;;12.18;2.53;;;;;;;12.77;100.00;101186.97;5082572;28;20027;-68
2022/10/16 07:40:46;;;;;;;6.90;2.33;;;;;;;12.79;100.00;101192.28;5086780;28;20032;-69
2022/10/16 07:43:12;;;;;;;9.10;2.08;;;;;;;12.82;100.00;101198.50;5080730;28;20426;-69
2022/10/16 07:45:45;;;;;;;7.30;2.40;;;;;;;12.89;100.00;101202.09;5086361;28;20023;-68
2022/10/16 07:48:11;;;;;;;10.30;2.45;;;;;;;12.95;100.00;101211.84;5075714;28;20417;-69
2022/10/16 07:50:36;;;;;;;5.82;1.80;;;;;;;13.00;100.00;101212.81;5091947;28;20038;-68
2022/10/16 07:53:01;;;;;;;8.90;1.77;;;;;;;13.02;100.00;101216.34;5085616;28;20032;-68
2022/10/16 07:55:27;;;;;;;9.40;2.10;;;;;;;13.05;100.00;101218.13;5087636;28;20031;-68
2022/10/16 07:57:52;;;;;;;4.43;1.98;;;;;;;13.10;100.00;101227.91;5093523;28;20097;-67
2022/10/16 08:00:17;;;;;;;7.55;2.08;;;;;;;13.12;100.00;101234.09;5081198;28;20028;-68
2022/10/16 08:02:43;;;;;;;5.93;1.55;;;;;;;13.19;100.00;101239.47;5089959;28;20029;-69
2022/10/16 08:05:08;;;;;;;21.77;2.53;;;;;;;13.23;100.00;101242.16;5090503;28;20027;-68
2022/10/16 08:07:34;;;;;;;13.88;2.40;;;;;;;13.28;100.00;101250.13;5090735;28;20028;-68
2022/10/16 08:10:00;;;;;;;7.35;1.98;;;;;;;13.34;100.00;101255.50;5080373;28;20396;-67
2022/10/16 08:12:26;;;;;;;14.27;2.00;;;;;;;13.40;100.00;101254.69;5079689;28;20016;-67
2022/10/16 08:14:51;;;;;;;11.07;2.03;;;;;;;13.46;100.00;101263.59;5089546;28;20066;-67
2022/10/16 08:17:16;;;;;;;4.70;1.70;;;;;;;13.51;100.00;101261.03;5085663;28;20103;-68
2022/10/16 08:19:48;;;;;;;8.32;1.67;;;;;;;13.58;100.00;101269.88;5086384;28;20059;-68
2022/10/16 08:22:14;;;;;;;7.30;1.75;;;;;;;13.62;100.00;101266.44;5077567;28;20048;-68
2022/10/16 08:24:40;;;;;;;8.40;1.60;;;;;;;13.67;100.00;101272.63;5089991;28;20380;-67
2022/10/16 08:27:06;;;;;;;7.00;1.65;;;;;;;13.71;100.00;101282.38;5085505;28;20020;-67
2022/10/16 08:29:32;;;;;;;13.27;1.95;;;;;;;13.79;100.00;101285.97;5088579;28;20035;-67
2022/10/16 08:31:57;;;;;;;10.52;1.90;;;;;;;13.81;100.00;101275.44;5093422;28;20069;-68
2022/10/16 08:34:23;;;;;;;4.35;1.70;;;;;;;13.87;100.00;101280.78;5087982;28;21864;-67
2022/10/16 08:36:48;;;;;;;8.65;1.77;;;;;;;13.95;100.00;101284.38;5080595;28;20031;-68
2022/10/16 08:39:14;;;;;;;7.30;1.63;;;;;;;14.02;100.00;101292.38;5088757;28;20091;-68
2022/10/16 08:42:01;;;;;;;12.02;1.70;;;;;;;14.08;100.00;101292.44;5088540;28;20039;-67
2022/10/16 08:44:42;;;;;;;9.35;1.77;;;;;;;14.17;100.00;101297.81;5086505;28;20059;-66
2022/10/16 08:47:22;;;;;;;8.80;1.77;;;;;;;14.22;100.00;101308.47;5079689;28;20046;-68
2022/10/16 08:49:57;;;;;;;12.77;2.08;;;;;;;14.24;100.00;101310.22;5082356;28;20028;-68
2022/10/16 08:52:28;;;;;;;6.65;1.42;;;;;;;14.36;100.00;101314.75;5089481;28;20023;-67
2022/10/16 08:54:55;;;;;;;8.15;1.60;;;;;;;14.38;100.00;101315.66;5087648;28;20047;-67
2022/10/16 08:57:23;;;;;;;14.35;1.83;;;;;;;14.46;100.00;101321.00;5080596;28;20063;-67
2022/10/16 08:59:49;;;;;;;9.77;1.77;;;;;;;14.57;100.00;101327.28;5084772;28;20032;-65
2022/10/16 09:02:26;;;;;;;13.07;2.03;;;;;;;14.76;100.00;101330.97;5085303;28;20024;-66
2022/10/16 09:05:10;;;;;;;6.15;1.58;;;;;;;14.87;100.00;101344.31;5079943;28;20036;-67
2022/10/16 09:07:41;;;;;;;;;;;;;;;14.88;100.00;101345.19;5078015;28;20515;-67
2022/10/16 09:10:15;;;;;;;13.10;2.03;;;;;;;14.84;100.00;101345.16;5075855;28;20000;-66
2022/10/16 09:13:14;;;;;;;11.23;1.42;;;;;;;14.99;100.00;101347.03;5081123;28;20040;-66
2022/10/16 09:15:44;;;;;;;14.93;2.10;;;;;;;15.13;100.00;101347.13;5082146;28;20024;-66
2022/10/16 09:18:24;;;;;;;8.82;1.70;;;;;;;15.20;100.00;101347.16;5081266;28;20411;-67
2022/10/16 09:20:56;;;;;;;4.72;1.20;;;;;;;15.28;100.00;101346.31;5078886;28;20032;-66
2022/10/16 09:23:31;;;;;;;12.73;2.75;;;;;;;15.30;100.00;101348.97;5082702;28;20486;-66
2022/10/16 09:25:58;;;;;;;15.13;2.25;;;;;;;15.38;100.00;101352.53;5083681;28;20513;-68
2022/10/16 09:28:24;;;;;;;12.13;2.35;;;;;;;15.48;100.00;101361.44;5078483;28;20039;-66
2022/10/16 09:30:50;;;;;;;10.07;1.92;;;;;;;15.71;100.00;101344.72;5083276;28;20033;-66
2022/10/16 09:33:18;;;;;;;10.32;2.28;;;;;;;15.83;100.00;101352.78;5078609;28;20031;-67
2022/10/16 09:35:48;;;;;;;13.30;2.60;;;;;;;15.92;100.00;101354.56;5080499;28;20039;-66
2022/10/16 09:38:35;;;;;;;8.15;1.80;;;;;;;16.09;100.00;101358.13;5085934;28;20020;-66
2022/10/16 09:41:11;;;;;;;9.18;1.90;;;;;;;16.07;100.00;101359.88;5085772;28;20035;-67
2022/10/16 09:43:41;;;;;;;11.43;2.53;;;;;;;16.22;100.00;101363.47;5083937;28;20024;-67
2022/10/16 09:46:26;;;;;;;9.48;1.80;;;;;;;16.37;100.00;101355.50;5083840;28;20082;-67
2022/10/16 09:48:56;;;;;;;7.53;1.50;;;;;;;16.45;100.00;101367.00;5077944;28;20164;-67
2022/10/16 09:51:24;;;;;;;9.57;1.60;;;;;;;16.39;100.00;101360.84;5077940;28;20062;-67
2022/10/16 09:54:14;;;;;;;9.40;2.13;;;;;;;16.37;100.00;101362.59;5081026;28;20032;-66
2022/10/16 09:56:40;;;;;;;11.32;1.88;;;;;;;16.42;100.00;101360.84;5084583;28;20519;-68
2022/10/16 09:59:23;;;;;;;10.63;1.80;;;;;;;16.58;100.00;101373.25;5082335;28;20032;-67
2022/10/16 10:01:55;;;;;;;13.57;1.70;;;;;;;16.48;100.00;101371.44;5081958;28;20498;-67
2022/10/16 10:04:23;;;;;;;11.57;1.45;;;;;;;16.55;100.00;101372.34;5081706;28;20031;-67
2022/10/16 10:06:54;;;;;;;9.43;2.00;;;;;;;16.80;100.00;101368.78;5089617;28;20023;-66
2022/10/16 10:09:30;;;;;;;10.30;2.85;;;;;;;17.17;100.00;101374.09;5086412;28;20103;-65
2022/10/16 10:11:57;;;;;;;6.57;2.33;;;;;;;17.15;100.00;101367.00;5082850;28;20069;-66
2022/10/16 10:14:46;;;;;;;12.52;1.88;;;;;;;17.04;100.00;101377.69;5082700;28;20093;-68
2022/10/16 10:17:16;;;;;;;10.13;2.03;;;;;;;16.62;100.00;101382.09;5078887;28;20078;-67
2022/10/16 10:19:47;;;;;;;9.80;1.65;;;;;;;16.46;100.00;101384.72;5084495;28;20041;-67
2022/10/16 10:22:20;;;;;;;15.30;1.80;;;;;;;16.32;100.00;101386.50;5082031;28;20115;-67
2022/10/16 10:25:12;;;;;;;10.18;1.70;;;;;;;16.25;100.00;101400.63;5086024;28;20028;-66
2022/10/16 10:28:14;;;;;;;16.88;2.15;;;;;;;16.62;100.00;101403.38;5087035;28;20031;-67
2022/10/16 10:30:45;;;;;;;6.45;1.42;;;;;;;16.62;100.00;101401.56;5072848;28;20032;-67
2022/10/16 10:33:48;;;;;;;9.90;1.65;;;;;;;17.02;98.98;101406.94;5079835;28;20101;-68
2022/10/16 10:36:31;;;;;;;13.02;1.60;;;;;;;17.12;84.96;101415.78;5081719;28;20031;-67
2022/10/16 10:38:58;;;;;;;5.18;1.38;;;;;;;17.14;84.55;101416.63;5080791;28;20035;-67
2022/10/16 10:41:26;;;;;;;7.05;1.52;;;;;;;17.62;87.42;101420.97;5086818;28;20154;-66
2022/10/16 10:43:55;;;;;;;6.50;1.67;;;;;;;18.10;87.42;101420.81;5079840;28;20097;-67
2022/10/16 10:46:32;;;;;;;10.20;1.45;;;;;;;18.60;79.40;101426.69;5089121;28;20119;-68
2022/10/16 10:49:16;;;;;;;14.38;1.95;;;;;;;19.09;76.58;101428.97;5085751;28;20028;-67
2022/10/16 10:51:54;;;;;;;12.55;1.95;;;;;;;19.44;71.49;101433.06;5081810;28;20033;-67
2022/10/16 10:54:36;;;;;;;15.05;1.50;;;;;;;19.43;72.92;101427.75;5080463;28;20027;-68
2022/10/16 10:57:18;;;;;;;14.48;3.55;;;;;;;19.45;71.87;101431.28;5086327;28;20438;-67
2022/10/16 11:00:27;;;;;;;13.75;2.17;;;;;;;19.35;69.16;101433.16;5081609;28;20020;-68
2022/10/16 11:03:04;;;;;;;7.00;1.30;;;;;;;19.55;69.01;101435.63;5085688;28;20028;-66
2022/10/16 11:05:38;;;;;;;10.55;1.58;;;;;;;19.99;71.11;101442.22;5095389;28;20027;-67
2022/10/16 11:08:17;;;;;;;11.27;2.03;;;;;;;20.30;65.61;101451.63;5095479;28;20043;-68
2022/10/16 11:10:49;;;;;;;8.52;2.08;;;;;;;20.19;63.47;101449.97;5083521;28;20035;-68
2022/10/16 11:13:33;;;;;;;10.07;1.73;;;;;;;20.33;65.12;101459.59;5092690;28;20024;-67
2022/10/16 11:16:30;;;;;;;13.40;2.15;;;;;;;20.60;63.36;101460.97;5085226;28;20043;-67
2022/10/16 11:19:14;;;;;;;12.98;2.45;;;;;;;20.84;61.89;101457.06;5061117;28;20048;-68
2022/10/16 11:21:50;;;;;;;9.82;2.15;;;;;;;21.23;61.13;101457.28;5086600;28;20028;-66
2022/10/16 11:24:35;;;;;;;7.07;1.80;;;;;;;20.75;56.26;101453.66;5087819;28;20031;-67
2022/10/16 11:27:06;;;;;;;11.77;1.88;;;;;;;20.49;58.70;101470.97;5086031;28;20122;-66
2022/10/16 11:29:35;;;;;;;7.18;1.70;;;;;;;20.69;57.08;101484.06;5081828;28;20039;-68